Weather

The location could not be found.

 

 

For a detailed forecast click the banner below.

ballooncastlogo

 

 

Available data for KABQ from the past 2 hours
ALBUQUERQUE, NM
Metar
KABQ 250452Z 28005KT 10SM CLR 27/M01 A3009 RMK AO2 SLP095 T02721006

04:52 UTC

Wind: 280° 5kt

Visibility: 10 SM

Sky:

Temp: 27 deg C / 80.6 deg F

Dewpoint: -1 deg C / 30.2 deg F

Pressure: 30.09 inHg

TAF
KABQ 242339Z 2500/2524 29007KT P6SM FEW130 FM250200 33007KT P6SM SKC FM250600 VRB05KT P6SM SKC FM251800 29010KT P6SM SKC